LZB975 LBSF-LBWN

Flight info

Callsign LZB975
Flight time 0h 33m
Altitude 27000
Route UMPIT T343 DICXA
Aircraft A320/M-SDE3FGHIRWY/LB1

Departure

Time 2026-04-28 13:24
Airport Sofia Airport (LBSF)

Arrival

Time 2026-04-28 13:57
Airport Varna Airport (LBWN)
Time Latitude Longitude Altitude Speed Heading
2026-04-28 12:57 42.69110 23.41283 1745 ft 0 kts 72°
2026-04-28 13:16 42.69104 23.41257 1740 ft 4 kts 68°
2026-04-28 13:17 42.69092 23.41226 1742 ft 4 kts 46°
2026-04-28 13:17 42.69073 23.41212 1743 ft 2 kts 344°
2026-04-28 13:17 42.69071 23.41213 1744 ft 0 kts 342°
2026-04-28 13:19 42.69090 23.41204 1741 ft 10 kts 342°
2026-04-28 13:19 42.69217 23.41151 1745 ft 21 kts 355°
2026-04-28 13:19 42.69374 23.41189 1746 ft 24 kts 12°
2026-04-28 13:20 42.69488 23.41171 1743 ft 11 kts 301°
2026-04-28 13:20 42.69500 23.41050 1749 ft 14 kts 274°
2026-04-28 13:20 42.69508 23.40906 1740 ft 15 kts 275°
2026-04-28 13:20 42.69517 23.40761 1749 ft 14 kts 275°
2026-04-28 13:21 42.69526 23.40626 1743 ft 14 kts 275°
2026-04-28 13:21 42.69551 23.40558 1749 ft 9 kts 16°
2026-04-28 13:21 42.69578 23.40629 1747 ft 8 kts 63°
2026-04-28 13:21 42.69604 23.40700 1744 ft 12 kts 64°
2026-04-28 13:22 42.69640 23.40801 1742 ft 11 kts 64°
2026-04-28 13:22 42.69673 23.40892 1745 ft 10 kts 62°
2026-04-28 13:22 42.69694 23.40968 1744 ft 7 kts 91°
2026-04-28 13:22 42.69693 23.40974 1744 ft 0 kts 94°
2026-04-28 13:23 42.69693 23.40983 1747 ft 6 kts 94°
2026-04-28 13:23 42.69671 23.41338 1748 ft 78 kts 95°
2026-04-28 13:24 42.69608 23.42397 1743 ft 145 kts 95°
2026-04-28 13:24 42.69516 23.43966 2047 ft 174 kts 93°
2026-04-28 13:24 42.69417 23.45624 2794 ft 179 kts 92°
2026-04-28 13:24 42.69324 23.47320 3589 ft 182 kts 88°
2026-04-28 13:25 42.69486 23.49093 4018 ft 199 kts 73°
2026-04-28 13:25 42.69794 23.51002 4314 ft 220 kts 71°
2026-04-28 13:25 42.70173 23.53147 4645 ft 246 kts 72°
2026-04-28 13:25 42.70588 23.55515 5127 ft 268 kts 73°
2026-04-28 13:26 42.71017 23.58040 5880 ft 278 kts 73°
2026-04-28 13:26 42.71441 23.60628 6766 ft 283 kts 75°
2026-04-28 13:26 42.71867 23.63276 7590 ft 289 kts 75°
2026-04-28 13:26 42.72295 23.65967 8471 ft 293 kts 76°
2026-04-28 13:27 42.72727 23.68700 9332 ft 298 kts 76°
2026-04-28 13:27 42.73167 23.71478 10123 ft 304 kts 75°
2026-04-28 13:27 42.73633 23.74401 10471 ft 328 kts 76°
2026-04-28 13:27 42.74133 23.77534 10744 ft 351 kts 76°
2026-04-28 13:28 42.74660 23.80850 11226 ft 364 kts 76°
2026-04-28 13:28 42.75194 23.84249 11932 ft 369 kts 76°
2026-04-28 13:28 42.75730 23.87691 12671 ft 374 kts 76°
2026-04-28 13:28 42.76270 23.91173 13444 ft 378 kts 76°
2026-04-28 13:29 42.76816 23.94692 14137 ft 382 kts 76°
2026-04-28 13:29 42.77370 23.98248 14809 ft 386 kts 76°
2026-04-28 13:29 42.77931 24.01839 15459 ft 390 kts 76°
2026-04-28 13:29 42.78496 24.05466 16143 ft 393 kts 75°
2026-04-28 13:30 42.79068 24.09129 16746 ft 398 kts 75°
2026-04-28 13:30 42.79645 24.12839 17364 ft 402 kts 75°
2026-04-28 13:30 42.80226 24.16580 17971 ft 406 kts 75°
2026-04-28 13:30 42.80811 24.20357 18560 ft 410 kts 75°
2026-04-28 13:31 42.81986 24.28022 19619 ft 417 kts 75°
2026-04-28 13:31 42.82578 24.31900 20119 ft 420 kts 75°
2026-04-28 13:31 42.83173 24.35809 20634 ft 423 kts 75°
2026-04-28 13:32 42.83773 24.39750 21126 ft 426 kts 75°
2026-04-28 13:32 42.84377 24.43720 21584 ft 430 kts 75°
2026-04-28 13:32 42.84984 24.47726 22067 ft 433 kts 75°
2026-04-28 13:32 42.85594 24.51762 22560 ft 436 kts 75°
2026-04-28 13:33 42.86207 24.55826 23002 ft 439 kts 75°
2026-04-28 13:33 42.86823 24.59918 23464 ft 443 kts 75°
2026-04-28 13:33 42.87445 24.64043 23877 ft 446 kts 75°
2026-04-28 13:33 42.88072 24.68194 24261 ft 449 kts 75°
2026-04-28 13:34 42.88701 24.72377 24635 ft 451 kts 75°
2026-04-28 13:34 42.89328 24.76582 25006 ft 454 kts 75°
2026-04-28 13:34 42.89956 24.80816 25382 ft 456 kts 75°
2026-04-28 13:34 42.90584 24.85068 25747 ft 459 kts 75°
2026-04-28 13:35 42.91212 24.89348 26125 ft 461 kts 75°
2026-04-28 13:35 42.91842 24.93642 26493 ft 463 kts 75°
2026-04-28 13:35 42.92480 24.97966 26846 ft 466 kts 75°
2026-04-28 13:35 42.93118 25.02310 27049 ft 468 kts 75°
2026-04-28 13:36 42.93754 25.06668 27082 ft 469 kts 75°
2026-04-28 13:36 42.94390 25.11031 27090 ft 469 kts 75°
2026-04-28 13:36 42.95025 25.15400 27086 ft 470 kts 75°
2026-04-28 13:36 42.95660 25.19774 27087 ft 470 kts 75°
2026-04-28 13:37 42.96293 25.24151 27087 ft 470 kts 76°
2026-04-28 13:37 42.96920 25.28525 27087 ft 470 kts 76°
2026-04-28 13:37 42.97547 25.32914 27089 ft 470 kts 76°
2026-04-28 13:37 42.98170 25.37293 27089 ft 470 kts 76°
2026-04-28 13:38 42.98793 25.41677 27086 ft 470 kts 76°
2026-04-28 13:38 42.99416 25.46054 27087 ft 470 kts 76°
2026-04-28 13:38 43.00042 25.50434 27086 ft 470 kts 76°
2026-04-28 13:38 43.00666 25.54813 27086 ft 470 kts 76°
2026-04-28 13:39 43.01287 25.59190 27085 ft 470 kts 76°
2026-04-28 13:39 43.01907 25.63575 27084 ft 470 kts 76°
2026-04-28 13:39 43.02317 25.66483 27082 ft 470 kts 76°
2026-04-28 13:39 43.03040 25.71626 27077 ft 470 kts 76°
2026-04-28 13:40 43.03653 25.76010 27075 ft 470 kts 76°
2026-04-28 13:40 43.04263 25.80390 27071 ft 470 kts 76°
2026-04-28 13:40 43.04873 25.84784 26975 ft 471 kts 76°
2026-04-28 13:40 43.05480 25.89179 26677 ft 470 kts 76°
2026-04-28 13:41 43.06083 25.93560 25900 ft 468 kts 76°
2026-04-28 13:41 43.06683 25.97926 25166 ft 466 kts 76°
2026-04-28 13:41 43.07272 26.02219 24443 ft 465 kts 77°
2026-04-28 13:41 43.07864 26.06555 23719 ft 463 kts 77°
2026-04-28 13:42 43.08453 26.10873 22932 ft 460 kts 77°
2026-04-28 13:42 43.09034 26.15151 22266 ft 455 kts 77°
2026-04-28 13:42 43.09608 26.19393 21598 ft 451 kts 77°
2026-04-28 13:42 43.10174 26.23590 20980 ft 446 kts 77°
2026-04-28 13:43 43.10734 26.27745 20383 ft 442 kts 77°
2026-04-28 13:43 43.11288 26.31862 19795 ft 437 kts 77°
2026-04-28 13:43 43.11833 26.35927 19235 ft 432 kts 77°
2026-04-28 13:43 43.12371 26.39953 18695 ft 428 kts 77°
2026-04-28 13:44 43.12900 26.43946 18120 ft 424 kts 77°
2026-04-28 13:44 43.13423 26.47895 17569 ft 419 kts 77°
2026-04-28 13:44 43.13939 26.51791 17043 ft 414 kts 77°
2026-04-28 13:44 43.14450 26.55649 16488 ft 410 kts 77°
2026-04-28 13:45 43.14953 26.59470 15943 ft 406 kts 77°
2026-04-28 13:45 43.15452 26.63258 15377 ft 403 kts 77°
2026-04-28 13:45 43.15949 26.67030 14816 ft 401 kts 77°
2026-04-28 13:45 43.16440 26.70791 14228 ft 400 kts 77°
2026-04-28 13:46 43.16926 26.74533 13602 ft 399 kts 77°
2026-04-28 13:46 43.17247 26.77009 13198 ft 397 kts 77°
2026-04-28 13:46 43.17728 26.80717 12594 ft 394 kts 77°
2026-04-28 13:46 43.18204 26.84401 11980 ft 391 kts 77°
2026-04-28 13:47 43.18679 26.88061 11355 ft 389 kts 77°
2026-04-28 13:47 43.19150 26.91688 10833 ft 384 kts 77°
2026-04-28 13:47 43.19607 26.95217 10706 ft 367 kts 77°
2026-04-28 13:47 43.20040 26.98593 10583 ft 352 kts 77°
2026-04-28 13:48 43.20454 27.01850 10355 ft 343 kts 77°
2026-04-28 13:48 43.20861 27.05048 9987 ft 339 kts 77°
2026-04-28 13:48 43.21264 27.08216 9768 ft 338 kts 77°
2026-04-28 13:48 43.21662 27.11350 9633 ft 328 kts 77°
2026-04-28 13:49 43.22043 27.14370 9510 ft 316 kts 77°
2026-04-28 13:49 43.22409 27.17289 9377 ft 305 kts 77°
2026-04-28 13:49 43.22765 27.20123 9110 ft 299 kts 77°
2026-04-28 13:49 43.23120 27.22916 8760 ft 296 kts 78°
2026-04-28 13:50 43.23467 27.25660 8223 ft 290 kts 78°
2026-04-28 13:50 43.23807 27.28363 7608 ft 287 kts 78°
2026-04-28 13:50 43.24142 27.31043 7002 ft 284 kts 78°
2026-04-28 13:50 43.24474 27.33697 6413 ft 281 kts 78°
2026-04-28 13:51 43.24801 27.36315 5796 ft 277 kts 79°
2026-04-28 13:51 43.25125 27.38920 5334 ft 277 kts 78°
2026-04-28 13:51 43.25446 27.41500 5055 ft 273 kts 78°
2026-04-28 13:51 43.25767 27.44072 4990 ft 275 kts 79°
2026-04-28 13:52 43.26081 27.46616 4788 ft 271 kts 79°
2026-04-28 13:52 43.26137 27.49166 4571 ft 264 kts 94°
2026-04-28 13:52 43.25920 27.51606 4415 ft 253 kts 97°
2026-04-28 13:52 43.25692 27.53972 4102 ft 246 kts 96°
2026-04-28 13:53 43.25493 27.56242 3796 ft 234 kts 96°
2026-04-28 13:53 43.25307 27.58406 3498 ft 224 kts 96°
2026-04-28 13:53 43.25127 27.60491 3199 ft 217 kts 97°
2026-04-28 13:53 43.24952 27.62511 2909 ft 211 kts 97°
2026-04-28 13:54 43.24781 27.64471 2630 ft 203 kts 98°
2026-04-28 13:54 43.24617 27.66360 2378 ft 195 kts 97°
2026-04-28 13:54 43.24460 27.68155 2102 ft 182 kts 97°
2026-04-28 13:54 43.24316 27.69803 1856 ft 169 kts 98°
2026-04-28 13:55 43.24182 27.71338 1660 ft 154 kts 97°
2026-04-28 13:55 43.24061 27.72723 1431 ft 140 kts 99°
2026-04-28 13:55 43.23948 27.73996 1244 ft 132 kts 98°
2026-04-28 13:55 43.23838 27.75244 1058 ft 131 kts 100°
2026-04-28 13:56 43.23725 27.76472 892 ft 129 kts 98°
2026-04-28 13:56 43.23619 27.77685 712 ft 128 kts 98°
2026-04-28 13:56 43.23517 27.78895 563 ft 127 kts 100°
2026-04-28 13:56 43.23415 27.80092 394 ft 126 kts 101°
2026-04-28 13:57 43.23307 27.81288 235 ft 125 kts 100°
2026-04-28 13:57 43.23215 27.82313 223 ft 87 kts 97°
2026-04-28 13:57 43.23153 27.82982 223 ft 50 kts 96°
2026-04-28 13:57 43.23138 27.83258 223 ft 16 kts 65°
2026-04-28 13:58 43.23246 27.83296 222 ft 18 kts
2026-04-28 13:58 43.23390 27.83316 222 ft 8 kts 330°
2026-04-28 13:58 43.23453 27.83233 222 ft 18 kts 333°
2026-04-28 13:58 43.23540 27.83115 222 ft 17 kts 303°
2026-04-28 13:59 43.23555 27.82994 222 ft 11 kts 276°
2026-04-28 13:59 43.23550 27.82895 222 ft 10 kts 265°
2026-04-28 13:59 43.23551 27.82807 222 ft 9 kts 274°
2026-04-28 13:59 43.23556 27.82729 222 ft 8 kts 275°
2026-04-28 14:00 43.23561 27.82663 222 ft 7 kts 277°
2026-04-28 14:00 43.23567 27.82596 222 ft 8 kts 277°
2026-04-28 14:00 43.23573 27.82527 222 ft 7 kts 277°
2026-04-28 14:00 43.23589 27.82481 224 ft 5 kts 336°
2026-04-28 14:01 43.23604 27.82502 222 ft 3 kts 68°
2026-04-28 14:01 43.23615 27.82534 222 ft 0 kts 64°